Wednesday, August 24, 2016, 3:37 PM EDT

KOFP, Hanover County Municipal

Location: Ashland, VA, United States Lat: 37.7
Local Time: 3:37 PM EDT (19:37 GMT) Lon: -77.433
Time Zone: US/Eastern Elev: 203 ft

Show me the last for .
Show Decoded

2016-08-24 14:54 METAR KOFP 241854Z AUTO 13006KT 10SM FEW049 29/16 A3025 RMK AO2 SLP242 T02890161
                 =
2016-08-24 13:54 METAR KOFP 241754Z AUTO VRB04KT 10SM FEW049 29/17 A3028 RMK AO2 SLP251 T02890167
                 10289 20200 58017 =
2016-08-24 12:54 METAR KOFP 241654Z AUTO 10SM CLR 28/16 A3030 RMK AO2 SLP258 T02830161 =
2016-08-24 11:54 METAR KOFP 241554Z AUTO 18004KT 10SM OVC038 27/15 A3032 RMK AO2 SLP264 T02670150
                 =
2016-08-24 10:54 METAR KOFP 241454Z AUTO VRB03KT 10SM CLR 26/16 A3033 RMK AO2 SLP267 T02610156
                 58006 =
2016-08-24 09:54 METAR KOFP 241354Z AUTO 23004KT 10SM CLR 24/16 A3034 RMK AO2 SLP271 T02390156 =
2016-08-24 08:54 METAR KOFP 241254Z AUTO 00000KT 10SM FEW070 21/16 A3034 RMK AO2 SLP274 T02060161
                 =
2016-08-24 07:54 METAR KOFP 241154Z AUTO VRB03KT 10SM SCT050 BKN070 20/17 A3034 RMK AO2 SLP274
                 T02000167 10200 20161 51015 =
2016-08-24 06:54 METAR KOFP 241054Z AUTO 00000KT 10SM BKN050 OVC070 17/15 A3033 RMK AO2 SLP269
                 T01670150 =
2016-08-24 05:54 METAR KOFP 240954Z AUTO 00000KT 10SM SCT070 16/14 A3032 RMK AO2 SLP265 T01610144
                 =
2016-08-24 04:54 METAR KOFP 240854Z AUTO 00000KT 10SM BKN070 17/15 A3030 RMK AO2 SLP259 T01670150
                 55003 =
2016-08-24 03:54 METAR KOFP 240754Z AUTO 00000KT 10SM BKN070 17/15 A3030 RMK AO2 SLP257 T01670150
                 =
2016-08-24 02:54 METAR KOFP 240654Z AUTO 00000KT 10SM CLR 17/15 A3030 RMK AO2 SLP259 T01670150 =
2016-08-24 01:54 METAR KOFP 240554Z AUTO 00000KT 10SM CLR 17/15 A3031 RMK AO2 SLP262 T01670150
                 10217 20167 58002 =
2016-08-24 00:54 METAR KOFP 240454Z AUTO 00000KT 10SM CLR 17/15 A3031 RMK AO2 SLP263 T01720150
                 402890161 =
2016-08-23 23:54 METAR KOFP 240354Z AUTO 00000KT 10SM CLR 18/16 A3032 RMK AO2 SLP264 T01780156 =
2016-08-23 22:54 METAR KOFP 240254Z AUTO 00000KT 10SM CLR 19/16 A3032 RMK AO2 SLP264 T01940156
                 51011 =
2016-08-23 21:54 METAR KOFP 240154Z AUTO 00000KT 10SM CLR 19/17 A3031 RMK AO2 SLP262 T01940167 =
2016-08-23 20:54 METAR KOFP 240054Z AUTO 00000KT 10SM CLR 21/18 A3030 RMK AO2 SLP259 T02060178 =
2016-08-23 19:54 METAR KOFP 232354Z AUTO 00000KT 10SM CLR 22/18 A3028 RMK AO2 SLP253 T02170183
                 10289 20217 55000 =
2016-08-23 18:54 METAR KOFP 232254Z AUTO 00000KT 10SM CLR 26/18 A3027 RMK AO2 SLP249 T02560183 =
2016-08-23 17:54 METAR KOFP 232154Z AUTO 00000KT 10SM BKN075 27/19 A3028 RMK AO2 SLP251 T02720189
                 =
2016-08-23 16:54 METAR KOFP 232054Z AUTO 00000KT 10SM SCT060 27/18 A3028 RMK AO2 SLP253 T02670183
                 56018 =
2016-08-23 15:54 METAR KOFP 231954Z AUTO VRB03KT 10SM CLR 28/15 A3030 RMK AO2 SLP258 T02780150 =

Support USWX by starting your Amazon purchase here.